Time;durP1;ratioP1;P1;durP2;ratioP2;P2;SDS_P1;SDS_P2;PMS_P1;PMS_P2;Temp;Humidity;BMP_temperature;BMP_pressure;BME280_temperature;BME280_humidity;BME280_pressure;Samples;Min_cycle;Max_cycle;Signal;HPM_P1;HPM_P2
2021/12/25 00:01:25;;;;;;;2.83;1.53;;;;;;;;;;5073124;28;20435;-59
2021/12/25 00:03:53;;;;;;;3.00;1.57;;;;;;;;;;5072413;28;20438;-59
2021/12/25 00:06:19;;;;;;;3.00;1.63;;;;;;;;;;5071596;28;20462;-60
2021/12/25 00:08:45;;;;;;;1.53;1.40;;;;;;;;;;5072982;28;20501;-59
2021/12/25 00:11:11;;;;;;;1.43;1.33;;;;;;;;;;5072850;28;21164;-60
2021/12/25 00:13:37;;;;;;;1.47;1.37;;;;;;;;;;5072504;28;20488;-60
2021/12/25 00:16:04;;;;;;;2.13;1.30;;;;;;;;;;5072831;28;20441;-59
2021/12/25 00:18:31;;;;;;;2.13;1.40;;;;;;;;;;5072709;28;20444;-60
2021/12/25 00:20:57;;;;;;;1.87;1.20;;;;;;;;;;5072758;28;20477;-61
2021/12/25 00:23:24;;;;;;;1.30;1.20;;;;;;;;;;5072588;28;20450;-61
2021/12/25 00:25:59;;;;;;;1.40;1.30;;;;;;;;;;5072703;28;20430;-59
2021/12/25 00:31:47;;;;;;;9.60;7.33;;;;;;;;;;5072365;28;20477;-59
2021/12/25 00:36:12;;;;;;;2.83;1.33;;;;;;;;;;5072488;28;20838;-61
2021/12/25 00:38:38;;;;;;;2.03;1.60;;;;;;;;;;5072108;28;20533;-60
2021/12/25 00:41:05;;;;;;;2.07;1.40;;;;;;;;;;5072203;28;20573;-59
2021/12/25 00:43:31;;;;;;;2.70;1.37;;;;;;;;;;5072246;28;20491;-60
2021/12/25 00:45:57;;;;;;;1.87;1.30;;;;;;;;;;5072513;28;20434;-60
2021/12/25 00:48:23;;;;;;;3.70;1.50;;;;;;;;;;5072320;28;20432;-60
2021/12/25 00:50:50;;;;;;;1.37;1.20;;;;;;;;;;5072163;28;20292;-60
2021/12/25 00:53:16;;;;;;;1.87;1.30;;;;;;;;;;5072205;28;20204;-59
2021/12/25 00:55:42;;;;;;;1.80;1.40;;;;;;;;;;5072135;28;20434;-59
2021/12/25 00:58:08;;;;;;;2.47;1.40;;;;;;;;;;5071788;28;20295;-59
2021/12/25 01:00:34;;;;;;;2.67;1.50;;;;;;;;;;5071616;28;20198;-59
2021/12/25 01:03:00;;;;;;;1.40;1.30;;;;;;;;;;5071900;28;20203;-60
2021/12/25 01:05:26;;;;;;;1.57;1.40;;;;;;;;;;5069443;28;20474;-59
2021/12/25 01:07:53;;;;;;;1.30;1.20;;;;;;;;;;5069774;28;20287;-60
2021/12/25 01:10:20;;;;;;;1.67;1.30;;;;;;;;;;5070840;28;20908;-60
2021/12/25 01:15:40;;;;;;;2.00;1.40;;;;;;;;;;5067044;28;20430;-59
2021/12/25 01:49:51;;;;;;;1.23;1.17;;;;;;;;;;5067843;28;20988;-60
2021/12/25 01:52:17;;;;;;;1.40;1.30;;;;;;;;;;5071237;28;20469;-60
2021/12/25 01:54:44;;;;;;;1.40;1.30;;;;;;;;;;5071133;28;20444;-61
2021/12/25 01:57:10;;;;;;;1.53;1.43;;;;;;;;;;5071106;28;20445;-61
2021/12/25 01:59:36;;;;;;;3.10;1.53;;;;;;;;;;5070887;28;20430;-60
2021/12/25 02:02:02;;;;;;;1.80;1.37;;;;;;;;;;5071266;28;20192;-60
2021/12/25 02:04:28;;;;;;;1.93;1.20;;;;;;;;;;5071009;28;20426;-61
2021/12/25 02:06:54;;;;;;;1.77;1.20;;;;;;;;;;5070953;28;20488;-61
2021/12/25 02:09:20;;;;;;;1.40;1.30;;;;;;;;;;5070770;28;20444;-61
2021/12/25 02:11:48;;;;;;;1.40;1.30;;;;;;;;;;5070951;28;20469;-61
2021/12/25 02:14:14;;;;;;;1.40;1.20;;;;;;;;;;5071161;28;20533;-61
2021/12/25 02:16:52;;;;;;;3.50;1.40;;;;;;;;;;5070895;28;20453;-59
2021/12/25 02:19:32;;;;;;;17.13;11.87;;;;;;;;;;5070953;28;20967;-59
2021/12/25 02:22:01;;;;;;;1.50;1.40;;;;;;;;;;5071115;28;20430;-60
2021/12/25 02:24:27;;;;;;;2.20;1.20;;;;;;;;;;5070953;28;20501;-60
2021/12/25 02:26:55;;;;;;;2.93;1.60;;;;;;;;;;5072094;28;20531;-60
2021/12/25 02:29:21;;;;;;;1.40;1.30;;;;;;;;;;5074650;28;20426;-60
2021/12/25 02:31:47;;;;;;;1.90;1.50;;;;;;;;;;5074477;28;20499;-60
2021/12/25 02:34:14;;;;;;;2.03;1.53;;;;;;;;;;5074525;28;20495;-60
2021/12/25 02:36:40;;;;;;;1.53;1.20;;;;;;;;;;5074371;28;20433;-61
2021/12/25 02:39:08;;;;;;;1.17;1.10;;;;;;;;;;5074452;28;20521;-59
2021/12/25 02:41:34;;;;;;;1.77;1.50;;;;;;;;;;5074081;28;20457;-59
2021/12/25 02:44:00;;;;;;;1.10;1.10;;;;;;;;;;5074431;28;20425;-60
2021/12/25 02:46:27;;;;;;;2.30;1.23;;;;;;;;;;5074261;28;20453;-61
2021/12/25 02:48:56;;;;;;;1.30;1.20;;;;;;;;;;5074211;28;20437;-60
2021/12/25 02:51:22;;;;;;;1.60;1.30;;;;;;;;;;5074058;28;20476;-60
2021/12/25 02:53:48;;;;;;;2.87;1.30;;;;;;;;;;5074248;28;20430;-60
2021/12/25 02:56:15;;;;;;;1.40;1.13;;;;;;;;;;5074225;28;20200;-60
2021/12/25 02:58:41;;;;;;;1.60;1.27;;;;;;;;;;5073892;28;20456;-60
2021/12/25 03:01:08;;;;;;;1.43;1.33;;;;;;;;;;5073944;28;20513;-59
2021/12/25 03:03:34;;;;;;;1.20;1.20;;;;;;;;;;5073705;28;20199;-60
2021/12/25 03:06:01;;;;;;;2.50;1.23;;;;;;;;;;5073881;28;20466;-60
2021/12/25 03:08:27;;;;;;;5.20;1.27;;;;;;;;;;5073879;28;20453;-60
2021/12/25 03:10:53;;;;;;;1.73;1.33;;;;;;;;;;5073697;28;20475;-60
2021/12/25 03:13:44;;;;;;;1.40;1.30;;;;;;;;;;5073819;28;20440;-60
2021/12/25 03:16:11;;;;;;;1.30;1.20;;;;;;;;;;5073778;28;20442;-60
2021/12/25 03:18:43;;;;;;;5.13;1.20;;;;;;;;;;5073461;28;20434;-59
2021/12/25 03:21:09;;;;;;;3.20;1.30;;;;;;;;;;5073679;28;20430;-60
2021/12/25 03:23:36;;;;;;;1.47;1.37;;;;;;;;;;5073271;28;20429;-59
2021/12/25 03:26:04;;;;;;;1.37;1.27;;;;;;;;;;5073545;28;20448;-59
2021/12/25 03:28:33;;;;;;;1.23;1.10;;;;;;;;;;5073421;28;20438;-61
2021/12/25 03:31:01;;;;;;;1.10;1.10;;;;;;;;;;5073427;28;20437;-59
2021/12/25 03:33:28;;;;;;;1.40;1.30;;;;;;;;;;5073347;28;20446;-59
2021/12/25 03:35:54;;;;;;;1.43;1.20;;;;;;;;;;5073403;28;20449;-59
2021/12/25 03:38:21;;;;;;;1.77;1.20;;;;;;;;;;5072062;28;20512;-60
2021/12/25 03:40:47;;;;;;;1.50;1.23;;;;;;;;;;5073024;28;20935;-60
2021/12/25 03:43:13;;;;;;;1.23;1.20;;;;;;;;;;5073499;28;20839;-60
2021/12/25 03:45:41;;;;;;;1.60;1.20;;;;;;;;;;5073100;28;20909;-60
2021/12/25 03:58:54;;;;;;;1.20;1.10;;;;;;;;;;5072959;28;20425;-60
2021/12/25 04:01:40;;;;;;;1.43;1.23;;;;;;;;;;5072976;28;20515;-60
2021/12/25 04:04:12;;;;;;;2.17;1.57;;;;;;;;;;5072984;28;20444;-60
2021/12/25 04:09:35;;;;;;;1.80;1.10;;;;;;;;;;5035320;28;20442;-59
2021/12/25 04:12:02;;;;;;;3.03;1.30;;;;;;;;;;5072578;28;20900;-59
2021/12/25 04:14:28;;;;;;;1.83;1.30;;;;;;;;;;5072453;28;20529;-59
2021/12/25 04:16:56;;;;;;;1.40;1.30;;;;;;;;;;5072507;28;20437;-59
2021/12/25 04:19:22;;;;;;;1.23;1.20;;;;;;;;;;5072456;28;20506;-59
2021/12/25 04:22:03;;;;;;;2.13;1.40;;;;;;;;;;5072359;28;20529;-59
2021/12/25 04:24:32;;;;;;;2.67;1.40;;;;;;;;;;5072284;28;20808;-59
2021/12/25 04:26:58;;;;;;;1.30;1.20;;;;;;;;;;5072417;28;20527;-59
2021/12/25 04:47:48;;;;;;;2.57;1.30;;;;;;;;;;5070254;28;20425;-60
2021/12/25 05:05:13;;;;;;;1.57;1.30;;;;;;;;;;5071844;28;20440;-60
2021/12/25 05:07:40;;;;;;;1.27;1.20;;;;;;;;;;5071668;28;20461;-60
2021/12/25 05:10:07;;;;;;;1.10;1.10;;;;;;;;;;5071813;28;20441;-60
2021/12/25 05:12:33;;;;;;;2.00;1.30;;;;;;;;;;5071636;28;20488;-61
2021/12/25 05:14:59;;;;;;;1.63;1.20;;;;;;;;;;5071889;28;20509;-61
2021/12/25 05:17:25;;;;;;;1.33;1.23;;;;;;;;;;5071715;28;20431;-60
2021/12/25 05:19:51;;;;;;;1.33;1.10;;;;;;;;;;5071429;28;20440;-60
2021/12/25 05:22:18;;;;;;;1.40;1.30;;;;;;;;;;5071615;28;20446;-60
2021/12/25 05:24:46;;;;;;;2.13;1.20;;;;;;;;;;5071328;28;20442;-60
2021/12/25 05:27:13;;;;;;;1.30;1.20;;;;;;;;;;5071298;28;20450;-60
2021/12/25 05:29:45;;;;;;;2.23;1.30;;;;;;;;;;5071186;28;20437;-60
2021/12/25 05:32:11;;;;;;;1.43;1.33;;;;;;;;;;5070546;28;21060;-59
2021/12/25 05:34:37;;;;;;;1.30;1.20;;;;;;;;;;5071245;28;20438;-61
2021/12/25 05:37:04;;;;;;;1.27;1.17;;;;;;;;;;5071600;28;20925;-60
2021/12/25 05:39:30;;;;;;;2.80;1.50;;;;;;;;;;5071265;28;20207;-60
2021/12/25 05:41:58;;;;;;;1.10;1.10;;;;;;;;;;5071523;28;20430;-60
2021/12/25 05:44:25;;;;;;;1.47;1.20;;;;;;;;;;5071275;28;20207;-61
2021/12/25 05:46:51;;;;;;;2.37;1.20;;;;;;;;;;5071582;28;20789;-60
2021/12/25 05:49:17;;;;;;;1.10;1.10;;;;;;;;;;5071474;28;20426;-60
2021/12/25 05:51:43;;;;;;;1.20;1.20;;;;;;;;;;5071391;28;20901;-60
2021/12/25 05:54:09;;;;;;;1.20;1.10;;;;;;;;;;5071487;28;20430;-60
2021/12/25 05:56:35;;;;;;;2.33;1.20;;;;;;;;;;5071274;28;20802;-59
2021/12/25 05:59:02;;;;;;;1.10;1.10;;;;;;;;;;5071452;28;20438;-59
2021/12/25 06:01:29;;;;;;;1.30;1.20;;;;;;;;;;5071914;28;20874;-62
2021/12/25 06:03:56;;;;;;;1.27;1.27;;;;;;;;;;5075185;28;20433;-59
2021/12/25 06:06:22;;;;;;;1.47;1.37;;;;;;;;;;5075170;28;20465;-59
2021/12/25 06:08:48;;;;;;;3.30;1.20;;;;;;;;;;5075145;28;20521;-59
2021/12/25 06:11:17;;;;;;;1.93;1.40;;;;;;;;;;5075354;28;20508;-59
2021/12/25 06:13:54;;;;;;;2.50;1.50;;;;;;;;;;5075347;28;20426;-59
2021/12/25 06:16:22;;;;;;;2.63;1.37;;;;;;;;;;5075422;28;20437;-59
2021/12/25 06:18:48;;;;;;;4.73;1.40;;;;;;;;;;5075162;28;20425;-59
2021/12/25 06:21:14;;;;;;;1.53;1.40;;;;;;;;;;5075249;28;20438;-60
2021/12/25 06:23:40;;;;;;;1.40;1.30;;;;;;;;;;5075216;28;20487;-59
2021/12/25 06:26:06;;;;;;;3.13;2.67;;;;;;;;;;5075126;28;20453;-59
2021/12/25 06:28:32;;;;;;;2.43;1.90;;;;;;;;;;5075080;28;20434;-60
2021/12/25 06:30:58;;;;;;;1.90;1.40;;;;;;;;;;5075196;28;20516;-59
2021/12/25 06:33:25;;;;;;;1.37;1.20;;;;;;;;;;5074971;28;20465;-60
2021/12/25 06:35:51;;;;;;;1.70;1.50;;;;;;;;;;5075005;28;20208;-60
2021/12/25 06:38:17;;;;;;;1.43;1.40;;;;;;;;;;5075131;28;20437;-59
2021/12/25 06:40:43;;;;;;;1.30;1.20;;;;;;;;;;5074778;28;20560;-59
2021/12/25 06:43:09;;;;;;;2.10;1.43;;;;;;;;;;5075012;28;20516;-59
2021/12/25 06:45:35;;;;;;;1.53;1.43;;;;;;;;;;5074824;28;20261;-58
2021/12/25 06:48:01;;;;;;;2.73;1.60;;;;;;;;;;5074957;28;20437;-59
2021/12/25 06:50:29;;;;;;;1.40;1.30;;;;;;;;;;5074802;28;20433;-59
2021/12/25 06:52:55;;;;;;;1.73;1.50;;;;;;;;;;5074636;28;21050;-59
2021/12/25 06:55:22;;;;;;;2.57;1.30;;;;;;;;;;5074664;28;20947;-59
2021/12/25 06:57:53;;;;;;;1.50;1.40;;;;;;;;;;5074630;28;20503;-60
2021/12/25 07:00:20;;;;;;;1.40;1.30;;;;;;;;;;5074321;28;20429;-59
2021/12/25 07:02:46;;;;;;;3.83;1.47;;;;;;;;;;5074122;28;20435;-59
2021/12/25 07:05:12;;;;;;;1.47;1.20;;;;;;;;;;5074334;28;20445;-59
2021/12/25 07:07:40;;;;;;;1.60;1.50;;;;;;;;;;5074203;28;20434;-59
2021/12/25 07:10:06;;;;;;;1.73;1.30;;;;;;;;;;5074509;28;20435;-60
2021/12/25 07:12:36;;;;;;;2.50;1.63;;;;;;;;;;5073969;28;20539;-60
2021/12/25 07:15:02;;;;;;;3.20;1.50;;;;;;;;;;5074500;28;20446;-59
2021/12/25 07:17:28;;;;;;;2.27;1.73;;;;;;;;;;5074170;28;20904;-59
2021/12/25 07:19:54;;;;;;;1.33;1.23;;;;;;;;;;5074293;28;20440;-59
2021/12/25 07:22:20;;;;;;;1.60;1.50;;;;;;;;;;5074153;28;20547;-60
2021/12/25 07:24:47;;;;;;;2.37;1.60;;;;;;;;;;5073946;28;20204;-60
2021/12/25 07:27:13;;;;;;;2.17;1.43;;;;;;;;;;5074182;28;20204;-60
2021/12/25 07:29:40;;;;;;;3.13;1.40;;;;;;;;;;5073874;28;20436;-60
2021/12/25 07:32:06;;;;;;;3.73;1.40;;;;;;;;;;5073858;28;20527;-60
2021/12/25 07:34:32;;;;;;;1.60;1.50;;;;;;;;;;5073794;28;20540;-60
2021/12/25 07:36:58;;;;;;;1.50;1.40;;;;;;;;;;5073840;28;20438;-61
2021/12/25 07:39:24;;;;;;;1.50;1.40;;;;;;;;;;5073739;28;20437;-60
2021/12/25 07:41:51;;;;;;;3.23;1.80;;;;;;;;;;5073420;28;20474;-61
2021/12/25 07:44:17;;;;;;;3.93;1.77;;;;;;;;;;5073816;28;20566;-60
2021/12/25 07:46:45;;;;;;;3.13;1.70;;;;;;;;;;5073450;28;20939;-60
2021/12/25 07:49:16;;;;;;;1.87;1.70;;;;;;;;;;5073595;28;20529;-61
2021/12/25 07:51:43;;;;;;;1.57;1.47;;;;;;;;;;5073488;28;20481;-61
2021/12/25 07:54:09;;;;;;;1.80;1.70;;;;;;;;;;5073408;28;20528;-60
2021/12/25 07:56:35;;;;;;;2.03;1.77;;;;;;;;;;5073442;28;20441;-61
2021/12/25 07:59:03;;;;;;;2.87;2.33;;;;;;;;;;5073514;28;20920;-61
2021/12/25 08:01:31;;;;;;;2.10;1.90;;;;;;;;;;5069844;28;20537;-60
2021/12/25 08:03:57;;;;;;;2.30;2.10;;;;;;;;;;5072527;28;20487;-59
2021/12/25 08:06:23;;;;;;;2.70;2.13;;;;;;;;;;5072883;28;20868;-61
2021/12/25 08:08:50;;;;;;;4.63;2.67;;;;;;;;;;5073202;28;20560;-60
2021/12/25 08:11:16;;;;;;;3.40;1.83;;;;;;;;;;5069713;28;20434;-60
2021/12/25 08:13:42;;;;;;;3.27;2.43;;;;;;;;;;5072475;28;20438;-60
2021/12/25 08:16:10;;;;;;;2.97;2.20;;;;;;;;;;5072459;28;20430;-59
2021/12/25 08:18:36;;;;;;;6.63;2.43;;;;;;;;;;5072384;28;20210;-59
2021/12/25 08:21:04;;;;;;;3.30;2.23;;;;;;;;;;5073068;28;20446;-59
2021/12/25 08:23:30;;;;;;;4.90;2.20;;;;;;;;;;5072961;28;20245;-59
2021/12/25 08:25:56;;;;;;;2.30;2.10;;;;;;;;;;5072440;28;20442;-59
2021/12/25 08:28:22;;;;;;;2.27;2.07;;;;;;;;;;5072721;28;20492;-59
2021/12/25 08:30:48;;;;;;;2.40;2.20;;;;;;;;;;5072940;28;20453;-59
2021/12/25 08:33:16;;;;;;;2.60;2.07;;;;;;;;;;5072640;28;20223;-59
2021/12/25 08:35:42;;;;;;;2.37;1.90;;;;;;;;;;5072497;28;20452;-59
2021/12/25 08:38:11;;;;;;;2.17;1.90;;;;;;;;;;5072585;28;20426;-60
2021/12/25 08:40:37;;;;;;;1.60;1.50;;;;;;;;;;5072633;28;20473;-60
2021/12/25 08:43:04;;;;;;;1.73;1.60;;;;;;;;;;5072673;28;20426;-60
2021/12/25 08:45:42;;;;;;;2.30;2.10;;;;;;;;;;5072733;28;20434;-60
2021/12/25 08:48:09;;;;;;;4.80;1.70;;;;;;;;;;5072603;28;20479;-60
2021/12/25 08:50:37;;;;;;;2.10;1.90;;;;;;;;;;5072581;28;20927;-60
2021/12/25 08:53:03;;;;;;;2.60;1.83;;;;;;;;;;5072461;28;20999;-59
2021/12/25 08:55:29;;;;;;;2.23;1.73;;;;;;;;;;5072544;28;20488;-57
2021/12/25 08:57:55;;;;;;;1.77;1.50;;;;;;;;;;5072479;28;20434;-58
2021/12/25 09:00:21;;;;;;;1.50;1.40;;;;;;;;;;5072568;28;20465;-57
2021/12/25 09:02:47;;;;;;;2.77;1.93;;;;;;;;;;5072076;28;20920;-58
2021/12/25 09:05:13;;;;;;;2.20;1.60;;;;;;;;;;5072143;28;20498;-59
2021/12/25 09:07:41;;;;;;;2.40;1.73;;;;;;;;;;5071739;28;20547;-59
2021/12/25 09:10:07;;;;;;;1.67;1.50;;;;;;;;;;5071418;28;20725;-60
2021/12/25 09:12:35;;;;;;;1.30;1.20;;;;;;;;;;5071262;28;20474;-60
2021/12/25 09:15:01;;;;;;;3.63;1.63;;;;;;;;;;5071734;28;20434;-60
2021/12/25 09:17:34;;;;;;;1.77;1.47;;;;;;;;;;5071645;28;20449;-61
2021/12/25 09:20:00;;;;;;;2.80;1.60;;;;;;;;;;5071533;28;20203;-61
2021/12/25 09:22:26;;;;;;;3.00;1.67;;;;;;;;;;5071320;28;20421;-61
2021/12/25 09:24:53;;;;;;;2.97;1.60;;;;;;;;;;5071337;28;20603;-61
2021/12/25 09:27:19;;;;;;;2.63;1.70;;;;;;;;;;5071509;28;20576;-61
2021/12/25 09:29:47;;;;;;;1.70;1.60;;;;;;;;;;5071320;28;20222;-61
2021/12/25 09:32:13;;;;;;;2.13;1.80;;;;;;;;;;5071278;28;20292;-61
2021/12/25 09:34:39;;;;;;;2.07;1.70;;;;;;;;;;5071333;28;20192;-61
2021/12/25 09:37:06;;;;;;;2.20;1.80;;;;;;;;;;5072913;28;20590;-61
2021/12/25 09:39:32;;;;;;;2.37;1.57;;;;;;;;;;5075278;28;20681;-61
2021/12/25 09:42:00;;;;;;;3.23;1.50;;;;;;;;;;5075580;28;20199;-63
2021/12/25 09:44:26;;;;;;;1.70;1.40;;;;;;;;;;5075491;28;20203;-61
2021/12/25 09:46:52;;;;;;;3.30;1.80;;;;;;;;;;5075129;28;20241;-61
2021/12/25 09:49:18;;;;;;;1.67;1.57;;;;;;;;;;5075053;28;20278;-61
2021/12/25 09:51:44;;;;;;;1.73;1.20;;;;;;;;;;5075075;28;20637;-60
2021/12/25 09:54:12;;;;;;;6.17;3.60;;;;;;;;;;5072883;28;20245;-60
2021/12/25 09:56:39;;;;;;;2.10;1.80;;;;;;;;;;5074849;28;20207;-60
2021/12/25 09:59:07;;;;;;;1.83;1.40;;;;;;;;;;5075230;28;20195;-61
2021/12/25 10:01:34;;;;;;;1.37;1.10;;;;;;;;;;5074447;28;20836;-60
2021/12/25 10:04:00;;;;;;;1.47;1.20;;;;;;;;;;5074693;28;20654;-60
2021/12/25 10:06:30;;;;;;;2.43;1.30;;;;;;;;;;5074828;28;20342;-60
2021/12/25 10:08:56;;;;;;;2.60;1.30;;;;;;;;;;5074754;28;20204;-60
2021/12/25 10:11:22;;;;;;;2.93;1.30;;;;;;;;;;5074688;28;20202;-60
2021/12/25 10:13:48;;;;;;;1.63;1.10;;;;;;;;;;5074659;28;20255;-59
2021/12/25 10:16:22;;;;;;;2.10;1.47;;;;;;;;;;5070983;28;20207;-60
2021/12/25 10:18:48;;;;;;;1.93;1.43;;;;;;;;;;5074509;28;20204;-60
2021/12/25 10:21:19;;;;;;;1.90;1.30;;;;;;;;;;5074798;28;20197;-60
2021/12/25 10:23:45;;;;;;;1.87;1.10;;;;;;;;;;5074410;28;20231;-61
2021/12/25 10:26:11;;;;;;;1.93;1.27;;;;;;;;;;5074601;28;20221;-60
2021/12/25 10:28:38;;;;;;;2.57;1.30;;;;;;;;;;5074377;28;20234;-61
2021/12/25 10:31:07;;;;;;;3.67;1.40;;;;;;;;;;5074610;28;20195;-63
2021/12/25 10:33:36;;;;;;;3.13;1.17;;;;;;;;;;5074384;28;20599;-61
2021/12/25 10:36:05;;;;;;;1.40;1.10;;;;;;;;;;5074622;28;20202;-62
2021/12/25 10:38:31;;;;;;;2.47;1.40;;;;;;;;;;5074440;28;20202;-60
2021/12/25 10:41:14;;;;;;;2.50;1.50;;;;;;;;;;5052565;28;20247;-60
2021/12/25 10:43:42;;;;;;;1.60;1.20;;;;;;;;;;5054369;28;20550;-60
2021/12/25 10:46:08;;;;;;;1.43;1.10;;;;;;;;;;5054600;28;20197;-59
2021/12/25 10:48:36;;;;;;;2.17;1.30;;;;;;;;;;5053668;28;20294;-60
2021/12/25 10:51:03;;;;;;;5.20;3.33;;;;;;;;;;5054482;28;20204;-59
2021/12/25 10:53:31;;;;;;;2.07;1.50;;;;;;;;;;5054239;28;20639;-59
2021/12/25 10:56:05;;;;;;;3.10;1.40;;;;;;;;;;5052857;28;20208;-60
2021/12/25 10:58:31;;;;;;;2.90;1.27;;;;;;;;;;5054164;28;20241;-58
2021/12/25 11:00:58;;;;;;;2.13;1.60;;;;;;;;;;5054038;28;20196;-61
2021/12/25 11:03:29;;;;;;;1.67;1.20;;;;;;;;;;5054134;28;20192;-60
2021/12/25 11:06:01;;;;;;;1.20;1.00;;;;;;;;;;5053897;28;20293;-61
2021/12/25 11:08:27;;;;;;;1.53;1.10;;;;;;;;;;5053823;28;20262;-59
2021/12/25 11:10:54;;;;;;;1.37;1.13;;;;;;;;;;5053576;28;20689;-60
2021/12/25 11:13:22;;;;;;;2.40;1.17;;;;;;;;;;5053786;28;20236;-60
2021/12/25 11:15:49;;;;;;;1.53;1.07;;;;;;;;;;5053660;28;20204;-60
2021/12/25 11:18:16;;;;;;;1.87;1.00;;;;;;;;;;5053508;28;20295;-61
2021/12/25 11:20:43;;;;;;;2.63;1.60;;;;;;;;;;5053874;28;20266;-59
2021/12/25 11:23:11;;;;;;;1.43;1.10;;;;;;;;;;5053926;28;20662;-60
2021/12/25 11:25:38;;;;;;;1.33;1.00;;;;;;;;;;5053845;28;20267;-59
2021/12/25 11:28:06;;;;;;;1.90;1.70;;;;;;;;;;5054124;28;20212;-59
2021/12/25 11:30:34;;;;;;;2.20;1.40;;;;;;;;;;5053348;28;20216;-61
2021/12/25 11:33:01;;;;;;;1.10;1.00;;;;;;;;;;5053737;28;20267;-61
2021/12/25 11:35:27;;;;;;;3.30;1.23;;;;;;;;;;5053811;28;20658;-59
2021/12/25 11:37:58;;;;;;;2.20;1.90;;;;;;;;;;5053744;28;20208;-59
2021/12/25 11:40:26;;;;;;;3.40;1.70;;;;;;;;;;5061041;28;20314;-61
2021/12/25 11:42:54;;;;;;;5.00;3.57;;;;;;;;;;5073350;28;20204;-60
2021/12/25 11:45:22;;;;;;;7.67;5.00;;;;;;;;;;5073252;28;20265;-59
2021/12/25 11:47:51;;;;;;;3.23;1.90;;;;;;;;;;5072641;28;20203;-60
2021/12/25 11:50:18;;;;;;;2.73;1.60;;;;;;;;;;5069364;28;20208;-62
2021/12/25 11:52:54;;;;;;;1.60;1.40;;;;;;;;;;5073129;28;20227;-62
2021/12/25 11:58:25;;;;;;;3.33;1.23;;;;;;;;;;5073284;28;20192;-63
2021/12/25 12:00:52;;;;;;;3.30;1.30;;;;;;;;;;5072384;28;20188;-62
2021/12/25 12:03:38;;;;;;;1.40;1.30;;;;;;;;;;5072986;28;20202;-64
2021/12/25 12:06:04;;;;;;;1.20;1.10;;;;;;;;;;5072630;28;20207;-62
2021/12/25 12:08:50;;;;;;;4.10;1.50;;;;;;;;;;5073269;28;20221;-62
2021/12/25 12:11:20;;;;;;;1.50;1.40;;;;;;;;;;5073065;28;20661;-62
2021/12/25 12:13:48;;;;;;;2.20;1.30;;;;;;;;;;5072897;28;20280;-62
2021/12/25 12:16:14;;;;;;;2.87;1.60;;;;;;;;;;5072649;28;20264;-62
2021/12/25 12:18:41;;;;;;;2.13;1.30;;;;;;;;;;5071972;28;20199;-61
2021/12/25 12:21:10;;;;;;;2.50;1.47;;;;;;;;;;5072490;28;20207;-63
2021/12/25 12:23:46;;;;;;;2.30;1.30;;;;;;;;;;5072348;28;20196;-62
2021/12/25 12:26:13;;;;;;;2.80;1.87;;;;;;;;;;5072975;28;20623;-62
2021/12/25 12:28:44;;;;;;;4.87;1.80;;;;;;;;;;5068992;28;20200;-61
2021/12/25 12:31:25;;;;;;;2.00;1.40;;;;;;;;;;5071915;28;20229;-62
2021/12/25 12:33:52;;;;;;;4.37;3.50;;;;;;;;;;5058609;28;20278;-63
2021/12/25 12:36:21;;;;;;;3.23;2.37;;;;;;;;;;5071793;28;20290;-62
2021/12/25 12:38:51;;;;;;;2.27;1.23;;;;;;;;;;5072071;28;20191;-63
2021/12/25 12:41:22;;;;;;;1.30;1.20;;;;;;;;;;5072240;28;20656;-63
2021/12/25 12:44:05;;;;;;;3.30;1.53;;;;;;;;;;5072140;28;20195;-63
2021/12/25 12:46:50;;;;;;;1.97;1.20;;;;;;;;;;5072174;28;20206;-62
2021/12/25 12:49:19;;;;;;;1.97;1.40;;;;;;;;;;5072170;28;20215;-62
2021/12/25 12:51:45;;;;;;;1.50;1.40;;;;;;;;;;5071938;28;20204;-62
2021/12/25 12:54:11;;;;;;;4.23;2.87;;;;;;;;;;5071942;28;20207;-62
2021/12/25 12:57:00;;;;;;;5.93;3.63;;;;;;;;;;5071661;28;20663;-62
2021/12/25 12:59:41;;;;;;;3.20;2.13;;;;;;;;;;5071828;28;20698;-62
2021/12/25 13:02:07;;;;;;;5.43;3.97;;;;;;;;;;5071592;28;20294;-62
2021/12/25 13:04:42;;;;;;;3.63;2.90;;;;;;;;;;5071572;28;20242;-61
2021/12/25 13:07:09;;;;;;;6.10;4.30;;;;;;;;;;5071316;28;20203;-61
2021/12/25 13:09:41;;;;;;;1.53;1.23;;;;;;;;;;5071653;28;20199;-62
2021/12/25 13:12:19;;;;;;;3.10;1.70;;;;;;;;;;5071569;28;20216;-62
2021/12/25 13:14:45;;;;;;;2.50;1.73;;;;;;;;;;5071783;28;20204;-62
2021/12/25 13:17:14;;;;;;;4.27;2.20;;;;;;;;;;5067552;28;20959;-62
2021/12/25 13:19:47;;;;;;;11.93;8.90;;;;;;;;;;5071083;28;20441;-62
2021/12/25 13:22:13;;;;;;;3.63;2.50;;;;;;;;;;5071493;28;20434;-62
2021/12/25 13:24:39;;;;;;;2.53;1.87;;;;;;;;;;5071160;28;20951;-62
2021/12/25 13:27:05;;;;;;;1.93;1.73;;;;;;;;;;5070876;28;20196;-63
2021/12/25 13:29:32;;;;;;;3.17;1.80;;;;;;;;;;5071982;28;20434;-63
2021/12/25 13:31:59;;;;;;;4.33;2.27;;;;;;;;;;5071122;28;20513;-63
2021/12/25 13:34:27;;;;;;;3.87;2.57;;;;;;;;;;5071631;28;20492;-61
2021/12/25 13:36:56;;;;;;;2.67;2.00;;;;;;;;;;5071535;28;20445;-61
2021/12/25 13:39:25;;;;;;;1.90;1.60;;;;;;;;;;5071421;28;20996;-62
2021/12/25 13:41:52;;;;;;;2.00;1.70;;;;;;;;;;5071315;28;20469;-62
2021/12/25 13:44:19;;;;;;;2.80;1.87;;;;;;;;;;5071485;28;20878;-63
2021/12/25 13:46:47;;;;;;;1.70;1.60;;;;;;;;;;5071481;28;20852;-62
2021/12/25 13:49:30;;;;;;;9.27;3.60;;;;;;;;;;5071632;28;20434;-62
2021/12/25 13:51:57;;;;;;;3.37;3.03;;;;;;;;;;5071346;28;20443;-61
2021/12/25 13:54:24;;;;;;;3.43;1.80;;;;;;;;;;5071606;28;20976;-61
2021/12/25 13:56:50;;;;;;;2.03;1.63;;;;;;;;;;5071296;28;20450;-60
2021/12/25 13:59:16;;;;;;;1.80;1.40;;;;;;;;;;5071463;28;20993;-62
2021/12/25 14:01:43;;;;;;;1.70;1.60;;;;;;;;;;5071465;28;20468;-61
2021/12/25 14:04:09;;;;;;;1.67;1.57;;;;;;;;;;5071793;28;20434;-61
2021/12/25 14:06:36;;;;;;;1.67;1.43;;;;;;;;;;5071330;28;20905;-61
2021/12/25 14:09:03;;;;;;;2.10;1.30;;;;;;;;;;5071688;28;20487;-61
2021/12/25 14:11:29;;;;;;;9.63;6.43;;;;;;;;;;5071353;28;20496;-60
2021/12/25 14:13:56;;;;;;;5.70;4.30;;;;;;;;;;5071286;28;20509;-61
2021/12/25 14:16:22;;;;;;;3.57;2.50;;;;;;;;;;5071526;28;20441;-62
2021/12/25 14:18:48;;;;;;;2.03;1.63;;;;;;;;;;5071114;28;20811;-62
2021/12/25 14:21:16;;;;;;;3.67;3.10;;;;;;;;;;5071223;28;20495;-62
2021/12/25 14:23:43;;;;;;;4.03;2.70;;;;;;;;;;5073535;28;20783;-61
2021/12/25 14:26:10;;;;;;;3.40;2.00;;;;;;;;;;5074979;28;20448;-60
2021/12/25 14:28:37;;;;;;;4.43;2.73;;;;;;;;;;5073817;28;20503;-62
2021/12/25 14:31:04;;;;;;;5.77;4.77;;;;;;;;;;5074815;28;20455;-61
2021/12/25 14:33:30;;;;;;;3.67;2.20;;;;;;;;;;5074867;28;20584;-62
2021/12/25 14:35:57;;;;;;;2.33;1.90;;;;;;;;;;5074755;28;20468;-62
2021/12/25 14:38:23;;;;;;;2.80;2.10;;;;;;;;;;5074880;28;20429;-61
2021/12/25 14:40:50;;;;;;;3.17;1.90;;;;;;;;;;5074541;28;20516;-61
2021/12/25 14:43:19;;;;;;;3.70;1.67;;;;;;;;;;5074750;28;20468;-61
2021/12/25 14:45:50;;;;;;;3.23;1.97;;;;;;;;;;5074476;28;20479;-61
2021/12/25 14:48:24;;;;;;;2.63;1.70;;;;;;;;;;5072771;28;20911;-61
2021/12/25 14:50:53;;;;;;;6.40;2.13;;;;;;;;;;5074656;28;20514;-61
2021/12/25 14:53:19;;;;;;;2.40;1.90;;;;;;;;;;5074664;28;20482;-61
2021/12/25 14:55:47;;;;;;;2.20;2.00;;;;;;;;;;5074849;28;20457;-60
2021/12/25 14:58:15;;;;;;;2.67;1.70;;;;;;;;;;5074779;28;20434;-61
2021/12/25 15:00:43;;;;;;;4.37;1.90;;;;;;;;;;5074668;28;20845;-60
2021/12/25 15:03:11;;;;;;;2.13;1.80;;;;;;;;;;5074530;28;20444;-60
2021/12/25 15:05:37;;;;;;;2.90;1.77;;;;;;;;;;5074338;28;20537;-61
2021/12/25 15:08:15;;;;;;;2.60;1.70;;;;;;;;;;5074397;28;20438;-59
2021/12/25 15:10:41;;;;;;;2.53;1.97;;;;;;;;;;5074176;28;20524;-60
2021/12/25 15:13:12;;;;;;;3.27;1.90;;;;;;;;;;5073975;28;20507;-60
2021/12/25 15:15:48;;;;;;;2.30;2.10;;;;;;;;;;5074136;28;20200;-63
2021/12/25 15:18:19;;;;;;;2.90;1.70;;;;;;;;;;5073941;28;20489;-61
2021/12/25 15:20:45;;;;;;;3.33;2.73;;;;;;;;;;5073903;28;20552;-60
2021/12/25 15:23:16;;;;;;;4.67;2.83;;;;;;;;;;5073667;28;20446;-60
2021/12/25 15:25:42;;;;;;;3.40;2.63;;;;;;;;;;5073819;28;20422;-61
2021/12/25 15:28:08;;;;;;;5.43;3.00;;;;;;;;;;5073697;28;20518;-61
2021/12/25 15:30:34;;;;;;;4.13;2.77;;;;;;;;;;5073772;28;20879;-61
2021/12/25 15:33:06;;;;;;;3.30;2.50;;;;;;;;;;5073800;28;20233;-60
2021/12/25 15:35:33;;;;;;;3.83;3.03;;;;;;;;;;5073749;28;20491;-61
2021/12/25 15:37:59;;;;;;;3.50;2.60;;;;;;;;;;5073831;28;20434;-60
2021/12/25 15:40:27;;;;;;;4.57;3.03;;;;;;;;;;5072186;28;20494;-60
2021/12/25 15:42:53;;;;;;;6.63;4.40;;;;;;;;;;5073635;28;20484;-61
2021/12/25 15:45:19;;;;;;;7.80;4.70;;;;;;;;;;5073532;28;20441;-61
2021/12/25 15:47:46;;;;;;;10.43;6.37;;;;;;;;;;5073590;28;20438;-60
2021/12/25 15:50:14;;;;;;;5.70;3.70;;;;;;;;;;5073671;28;20841;-61
2021/12/25 15:52:41;;;;;;;4.20;3.07;;;;;;;;;;5072826;28;20866;-62
2021/12/25 15:55:07;;;;;;;5.30;3.37;;;;;;;;;;5072812;28;20449;-62
2021/12/25 15:57:35;;;;;;;6.43;4.30;;;;;;;;;;5073264;28;20852;-61
2021/12/25 16:00:02;;;;;;;5.40;3.30;;;;;;;;;;5072987;28;20430;-63
2021/12/25 16:02:28;;;;;;;3.90;3.10;;;;;;;;;;5073010;28;20469;-63
2021/12/25 16:04:54;;;;;;;4.67;2.70;;;;;;;;;;5073010;28;20492;-62
2021/12/25 16:07:21;;;;;;;2.23;2.03;;;;;;;;;;5073373;28;20830;-62
2021/12/25 16:09:47;;;;;;;3.30;2.43;;;;;;;;;;5073229;28;20860;-62
2021/12/25 16:12:14;;;;;;;3.47;2.27;;;;;;;;;;5073021;28;20983;-62
2021/12/25 16:14:40;;;;;;;5.07;3.03;;;;;;;;;;5072886;28;20864;-64
2021/12/25 16:17:07;;;;;;;4.90;2.77;;;;;;;;;;5051740;28;20523;-60